sensor_id;sensor_type;location;lat;lon;timestamp;temperature;humidity
27266;DHT22;14766;51.380;13.762;2023-07-28T00:01:08;21.10;71.20
27266;DHT22;14766;51.380;13.762;2023-07-28T00:03:35;21.10;71.20
27266;DHT22;14766;51.380;13.762;2023-07-28T00:06:02;21.20;71.10
27266;DHT22;14766;51.380;13.762;2023-07-28T00:08:30;21.20;71.10
27266;DHT22;14766;51.380;13.762;2023-07-28T00:10:57;21.20;71.30
27266;DHT22;14766;51.380;13.762;2023-07-28T00:13:24;21.20;71.20
27266;DHT22;14766;51.380;13.762;2023-07-28T00:15:51;21.20;70.90
27266;DHT22;14766;51.380;13.762;2023-07-28T00:18:18;21.20;71.00
27266;DHT22;14766;51.380;13.762;2023-07-28T00:20:48;21.20;71.00
27266;DHT22;14766;51.380;13.762;2023-07-28T00:23:15;21.20;71.00
27266;DHT22;14766;51.380;13.762;2023-07-28T00:25:42;21.20;70.90
27266;DHT22;14766;51.380;13.762;2023-07-28T00:28:11;21.20;71.00
27266;DHT22;14766;51.380;13.762;2023-07-28T00:30:38;21.30;71.00
27266;DHT22;14766;51.380;13.762;2023-07-28T00:33:05;21.20;70.80
27266;DHT22;14766;51.380;13.762;2023-07-28T00:35:32;21.20;71.00
27266;DHT22;14766;51.380;13.762;2023-07-28T00:37:59;21.30;71.10
27266;DHT22;14766;51.380;13.762;2023-07-28T00:40:27;21.30;71.90
27266;DHT22;14766;51.380;13.762;2023-07-28T00:42:54;21.30;71.20
27266;DHT22;14766;51.380;13.762;2023-07-28T00:45:22;21.30;71.00
27266;DHT22;14766;51.380;13.762;2023-07-28T00:47:49;21.30;70.90
27266;DHT22;14766;51.380;13.762;2023-07-28T00:50:17;21.30;71.00
27266;DHT22;14766;51.380;13.762;2023-07-28T00:52:44;21.30;70.90
27266;DHT22;14766;51.380;13.762;2023-07-28T00:55:13;21.30;71.00
27266;DHT22;14766;51.380;13.762;2023-07-28T00:57:40;21.30;71.00
27266;DHT22;14766;51.380;13.762;2023-07-28T01:00:08;21.30;71.10
27266;DHT22;14766;51.380;13.762;2023-07-28T01:02:36;21.30;71.20
27266;DHT22;14766;51.380;13.762;2023-07-28T01:05:03;21.40;71.50
27266;DHT22;14766;51.380;13.762;2023-07-28T01:10:11;21.30;71.40
27266;DHT22;14766;51.380;13.762;2023-07-28T01:12:41;21.30;71.40
27266;DHT22;14766;51.380;13.762;2023-07-28T01:15:09;21.30;71.20
27266;DHT22;14766;51.380;13.762;2023-07-28T01:17:36;21.40;72.20
27266;DHT22;14766;51.380;13.762;2023-07-28T01:20:03;21.30;71.60
27266;DHT22;14766;51.380;13.762;2023-07-28T01:22:47;21.30;71.70
27266;DHT22;14766;51.380;13.762;2023-07-28T01:28:24;21.40;72.40
27266;DHT22;14766;51.380;13.762;2023-07-28T01:30:51;21.30;72.40
27266;DHT22;14766;51.380;13.762;2023-07-28T01:33:19;21.30;72.30
27266;DHT22;14766;51.380;13.762;2023-07-28T01:35:46;21.30;72.30
27266;DHT22;14766;51.380;13.762;2023-07-28T01:38:14;21.40;72.30
27266;DHT22;14766;51.380;13.762;2023-07-28T01:40:41;21.30;72.20
27266;DHT22;14766;51.380;13.762;2023-07-28T01:43:08;21.30;72.20
27266;DHT22;14766;51.380;13.762;2023-07-28T01:45:34;21.30;72.20
27266;DHT22;14766;51.380;13.762;2023-07-28T01:48:02;21.30;72.10
27266;DHT22;14766;51.380;13.762;2023-07-28T01:50:30;21.30;72.10
27266;DHT22;14766;51.380;13.762;2023-07-28T01:52:58;21.30;72.00
27266;DHT22;14766;51.380;13.762;2023-07-28T01:55:26;21.40;72.20
27266;DHT22;14766;51.380;13.762;2023-07-28T01:57:56;21.40;72.20
27266;DHT22;14766;51.380;13.762;2023-07-28T02:00:24;21.40;72.00
27266;DHT22;14766;51.380;13.762;2023-07-28T02:02:53;21.40;72.00
27266;DHT22;14766;51.380;13.762;2023-07-28T02:05:22;21.40;72.10
27266;DHT22;14766;51.380;13.762;2023-07-28T02:07:49;21.40;72.00
27266;DHT22;14766;51.380;13.762;2023-07-28T02:10:16;21.40;72.20
27266;DHT22;14766;51.380;13.762;2023-07-28T02:12:44;21.40;72.20
27266;DHT22;14766;51.380;13.762;2023-07-28T02:15:11;21.40;72.20
27266;DHT22;14766;51.380;13.762;2023-07-28T02:17:40;21.40;72.40
27266;DHT22;14766;51.380;13.762;2023-07-28T02:20:09;21.30;72.40
27266;DHT22;14766;51.380;13.762;2023-07-28T02:22:40;21.30;72.50
27266;DHT22;14766;51.380;13.762;2023-07-28T02:25:07;21.40;72.70
27266;DHT22;14766;51.380;13.762;2023-07-28T02:27:35;21.30;72.70
27266;DHT22;14766;51.380;13.762;2023-07-28T02:30:04;21.30;72.60
27266;DHT22;14766;51.380;13.762;2023-07-28T02:32:32;21.30;72.80
27266;DHT22;14766;51.380;13.762;2023-07-28T02:34:59;21.30;72.60
27266;DHT22;14766;51.380;13.762;2023-07-28T02:37:26;21.30;72.70
27266;DHT22;14766;51.380;13.762;2023-07-28T02:39:53;21.30;72.80
27266;DHT22;14766;51.380;13.762;2023-07-28T02:42:20;21.30;72.60
27266;DHT22;14766;51.380;13.762;2023-07-28T02:44:47;21.30;72.60
27266;DHT22;14766;51.380;13.762;2023-07-28T02:47:14;21.30;72.50
27266;DHT22;14766;51.380;13.762;2023-07-28T02:49:43;21.30;72.60
27266;DHT22;14766;51.380;13.762;2023-07-28T02:52:12;21.30;72.60
27266;DHT22;14766;51.380;13.762;2023-07-28T02:54:40;21.40;72.70
27266;DHT22;14766;51.380;13.762;2023-07-28T02:57:07;21.30;72.60
27266;DHT22;14766;51.380;13.762;2023-07-28T02:59:36;21.30;72.60
27266;DHT22;14766;51.380;13.762;2023-07-28T03:02:04;21.30;72.60
27266;DHT22;14766;51.380;13.762;2023-07-28T03:04:31;21.30;72.60
27266;DHT22;14766;51.380;13.762;2023-07-28T03:07:21;21.30;72.60
27266;DHT22;14766;51.380;13.762;2023-07-28T03:09:55;21.30;72.60
27266;DHT22;14766;51.380;13.762;2023-07-28T03:12:23;21.30;72.60
27266;DHT22;14766;51.380;13.762;2023-07-28T03:14:58;21.30;72.60
27266;DHT22;14766;51.380;13.762;2023-07-28T03:17:27;21.30;72.50
27266;DHT22;14766;51.380;13.762;2023-07-28T03:19:54;21.30;72.50
27266;DHT22;14766;51.380;13.762;2023-07-28T03:22:21;21.30;72.50
27266;DHT22;14766;51.380;13.762;2023-07-28T03:24:49;21.30;72.50
27266;DHT22;14766;51.380;13.762;2023-07-28T03:27:16;21.30;72.40
27266;DHT22;14766;51.380;13.762;2023-07-28T03:29:43;21.30;72.40
27266;DHT22;14766;51.380;13.762;2023-07-28T03:32:11;21.30;72.50
27266;DHT22;14766;51.380;13.762;2023-07-28T03:34:38;21.30;72.40
27266;DHT22;14766;51.380;13.762;2023-07-28T03:37:10;21.30;72.50
27266;DHT22;14766;51.380;13.762;2023-07-28T03:39:38;21.30;72.40
27266;DHT22;14766;51.380;13.762;2023-07-28T03:42:05;21.30;72.30
27266;DHT22;14766;51.380;13.762;2023-07-28T03:44:34;21.30;72.30
27266;DHT22;14766;51.380;13.762;2023-07-28T03:47:01;21.30;72.30
27266;DHT22;14766;51.380;13.762;2023-07-28T03:49:29;21.30;72.20
27266;DHT22;14766;51.380;13.762;2023-07-28T03:51:56;21.30;72.20
27266;DHT22;14766;51.380;13.762;2023-07-28T03:54:23;21.30;72.20
27266;DHT22;14766;51.380;13.762;2023-07-28T03:56:50;21.30;72.30
27266;DHT22;14766;51.380;13.762;2023-07-28T03:59:19;21.40;72.30
27266;DHT22;14766;51.380;13.762;2023-07-28T04:01:47;21.30;72.30
27266;DHT22;14766;51.380;13.762;2023-07-28T04:04:16;21.30;72.30
27266;DHT22;14766;51.380;13.762;2023-07-28T04:06:46;21.30;72.20
27266;DHT22;14766;51.380;13.762;2023-07-28T04:09:14;21.30;72.10
27266;DHT22;14766;51.380;13.762;2023-07-28T04:11:41;21.30;72.00
27266;DHT22;14766;51.380;13.762;2023-07-28T04:14:09;21.40;72.10
27266;DHT22;14766;51.380;13.762;2023-07-28T04:16:36;21.40;72.00
27266;DHT22;14766;51.380;13.762;2023-07-28T04:19:05;21.40;72.00
27266;DHT22;14766;51.380;13.762;2023-07-28T04:21:34;21.40;71.90
27266;DHT22;14766;51.380;13.762;2023-07-28T04:24:01;21.40;72.00
27266;DHT22;14766;51.380;13.762;2023-07-28T04:26:30;21.40;71.90
27266;DHT22;14766;51.380;13.762;2023-07-28T04:29:02;21.40;71.80
27266;DHT22;14766;51.380;13.762;2023-07-28T04:31:30;21.40;71.80
27266;DHT22;14766;51.380;13.762;2023-07-28T04:34:03;21.40;71.80
27266;DHT22;14766;51.380;13.762;2023-07-28T04:36:52;21.30;71.80
27266;DHT22;14766;51.380;13.762;2023-07-28T04:39:27;21.30;71.70
27266;DHT22;14766;51.380;13.762;2023-07-28T04:41:54;21.30;71.90
27266;DHT22;14766;51.380;13.762;2023-07-28T04:44:21;21.30;71.80
27266;DHT22;14766;51.380;13.762;2023-07-28T04:46:54;21.30;71.80
27266;DHT22;14766;51.380;13.762;2023-07-28T04:49:22;21.40;71.90
27266;DHT22;14766;51.380;13.762;2023-07-28T04:52:15;21.40;71.80
27266;DHT22;14766;51.380;13.762;2023-07-28T04:55:01;21.40;71.70
27266;DHT22;14766;51.380;13.762;2023-07-28T04:57:30;21.40;71.70
27266;DHT22;14766;51.380;13.762;2023-07-28T04:59:57;21.50;71.70
27266;DHT22;14766;51.380;13.762;2023-07-28T05:02:24;21.40;71.60
27266;DHT22;14766;51.380;13.762;2023-07-28T05:04:51;21.50;71.60
27266;DHT22;14766;51.380;13.762;2023-07-28T05:07:18;21.50;71.60
27266;DHT22;14766;51.380;13.762;2023-07-28T05:09:47;21.50;71.60
27266;DHT22;14766;51.380;13.762;2023-07-28T05:12:14;21.50;71.60
27266;DHT22;14766;51.380;13.762;2023-07-28T05:14:44;21.50;71.50
27266;DHT22;14766;51.380;13.762;2023-07-28T05:17:13;21.50;71.40
27266;DHT22;14766;51.380;13.762;2023-07-28T05:19:56;21.60;71.40
27266;DHT22;14766;51.380;13.762;2023-07-28T05:22:46;21.60;71.10
27266;DHT22;14766;51.380;13.762;2023-07-28T05:25:15;21.60;71.20
27266;DHT22;14766;51.380;13.762;2023-07-28T05:27:44;21.60;71.20
27266;DHT22;14766;51.380;13.762;2023-07-28T05:30:11;21.60;71.10
27266;DHT22;14766;51.380;13.762;2023-07-28T05:32:38;21.60;71.10
27266;DHT22;14766;51.380;13.762;2023-07-28T05:35:19;21.60;71.10
27266;DHT22;14766;51.380;13.762;2023-07-28T05:37:47;21.60;71.10
27266;DHT22;14766;51.380;13.762;2023-07-28T05:40:15;21.60;70.90
27266;DHT22;14766;51.380;13.762;2023-07-28T05:42:44;21.60;70.90
27266;DHT22;14766;51.380;13.762;2023-07-28T05:45:12;21.60;70.70
27266;DHT22;14766;51.380;13.762;2023-07-28T05:47:40;21.70;70.80
27266;DHT22;14766;51.380;13.762;2023-07-28T05:50:08;21.70;70.80
27266;DHT22;14766;51.380;13.762;2023-07-28T05:52:35;21.60;70.60
27266;DHT22;14766;51.380;13.762;2023-07-28T05:55:02;21.70;70.70
27266;DHT22;14766;51.380;13.762;2023-07-28T05:57:29;21.70;70.80
27266;DHT22;14766;51.380;13.762;2023-07-28T06:00:03;21.70;70.80
27266;DHT22;14766;51.380;13.762;2023-07-28T06:02:39;21.70;71.00
27266;DHT22;14766;51.380;13.762;2023-07-28T06:05:09;21.80;71.00
27266;DHT22;14766;51.380;13.762;2023-07-28T06:07:38;21.80;71.00
27266;DHT22;14766;51.380;13.762;2023-07-28T06:10:07;21.80;70.60
27266;DHT22;14766;51.380;13.762;2023-07-28T06:12:34;21.90;70.50
27266;DHT22;14766;51.380;13.762;2023-07-28T06:15:05;21.90;70.30
27266;DHT22;14766;51.380;13.762;2023-07-28T06:17:35;21.90;70.00
27266;DHT22;14766;51.380;13.762;2023-07-28T06:20:02;22.00;70.30
27266;DHT22;14766;51.380;13.762;2023-07-28T06:22:29;22.00;70.10
27266;DHT22;14766;51.380;13.762;2023-07-28T06:24:56;22.00;69.90
27266;DHT22;14766;51.380;13.762;2023-07-28T06:27:25;22.10;70.00
27266;DHT22;14766;51.380;13.762;2023-07-28T06:29:52;22.20;70.10
27266;DHT22;14766;51.380;13.762;2023-07-28T06:32:21;22.20;69.80
27266;DHT22;14766;51.380;13.762;2023-07-28T06:34:53;22.30;69.50
27266;DHT22;14766;51.380;13.762;2023-07-28T06:37:20;22.30;69.10
27266;DHT22;14766;51.380;13.762;2023-07-28T06:39:48;22.40;68.80
27266;DHT22;14766;51.380;13.762;2023-07-28T06:42:15;22.40;68.80
27266;DHT22;14766;51.380;13.762;2023-07-28T06:44:52;22.50;68.90
27266;DHT22;14766;51.380;13.762;2023-07-28T06:47:21;22.50;68.90
27266;DHT22;14766;51.380;13.762;2023-07-28T06:49:48;22.50;68.50
27266;DHT22;14766;51.380;13.762;2023-07-28T06:52:16;22.60;68.50
27266;DHT22;14766;51.380;13.762;2023-07-28T06:54:44;22.60;67.90
27266;DHT22;14766;51.380;13.762;2023-07-28T06:57:15;22.70;67.80
27266;DHT22;14766;51.380;13.762;2023-07-28T06:59:47;22.70;67.70
27266;DHT22;14766;51.380;13.762;2023-07-28T07:02:14;22.70;67.40
27266;DHT22;14766;51.380;13.762;2023-07-28T07:04:43;22.70;67.30
27266;DHT22;14766;51.380;13.762;2023-07-28T07:07:13;22.80;67.30
27266;DHT22;14766;51.380;13.762;2023-07-28T07:09:42;22.80;67.30
27266;DHT22;14766;51.380;13.762;2023-07-28T07:12:10;22.80;67.50
27266;DHT22;14766;51.380;13.762;2023-07-28T07:14:37;22.80;67.10
27266;DHT22;14766;51.380;13.762;2023-07-28T07:17:07;22.80;67.30
27266;DHT22;14766;51.380;13.762;2023-07-28T07:19:34;22.80;67.20
27266;DHT22;14766;51.380;13.762;2023-07-28T07:22:02;22.90;67.00
27266;DHT22;14766;51.380;13.762;2023-07-28T07:24:29;22.90;66.60
27266;DHT22;14766;51.380;13.762;2023-07-28T07:26:56;23.00;66.50
27266;DHT22;14766;51.380;13.762;2023-07-28T07:29:23;23.00;66.50
27266;DHT22;14766;51.380;13.762;2023-07-28T07:31:50;23.00;66.00
27266;DHT22;14766;51.380;13.762;2023-07-28T07:34:22;23.00;65.90
27266;DHT22;14766;51.380;13.762;2023-07-28T07:36:50;23.00;65.70
27266;DHT22;14766;51.380;13.762;2023-07-28T07:39:17;23.00;65.50
27266;DHT22;14766;51.380;13.762;2023-07-28T07:41:46;23.00;65.80
27266;DHT22;14766;51.380;13.762;2023-07-28T07:44:13;23.00;65.80
27266;DHT22;14766;51.380;13.762;2023-07-28T07:46:40;23.00;65.40
27266;DHT22;14766;51.380;13.762;2023-07-28T07:49:09;23.00;65.20
27266;DHT22;14766;51.380;13.762;2023-07-28T07:51:37;23.00;65.60
27266;DHT22;14766;51.380;13.762;2023-07-28T07:54:04;23.00;65.60
27266;DHT22;14766;51.380;13.762;2023-07-28T07:56:31;23.10;65.70
27266;DHT22;14766;51.380;13.762;2023-07-28T07:58:58;23.20;66.00
27266;DHT22;14766;51.380;13.762;2023-07-28T08:01:25;23.20;65.50
27266;DHT22;14766;51.380;13.762;2023-07-28T08:03:52;23.30;65.30
27266;DHT22;14766;51.380;13.762;2023-07-28T08:06:19;23.30;65.10
27266;DHT22;14766;51.380;13.762;2023-07-28T08:08:46;23.40;64.50
27266;DHT22;14766;51.380;13.762;2023-07-28T08:11:13;23.40;64.30
27266;DHT22;14766;51.380;13.762;2023-07-28T08:13:40;23.40;64.70
27266;DHT22;14766;51.380;13.762;2023-07-28T08:16:08;23.50;64.60
27266;DHT22;14766;51.380;13.762;2023-07-28T08:18:35;23.50;64.30
27266;DHT22;14766;51.380;13.762;2023-07-28T08:21:04;23.50;63.70
27266;DHT22;14766;51.380;13.762;2023-07-28T08:23:31;23.50;64.00
27266;DHT22;14766;51.380;13.762;2023-07-28T08:25:58;23.50;64.20
27266;DHT22;14766;51.380;13.762;2023-07-28T08:28:25;23.50;64.10
27266;DHT22;14766;51.380;13.762;2023-07-28T08:30:59;23.60;64.00
27266;DHT22;14766;51.380;13.762;2023-07-28T08:33:28;23.60;63.80
27266;DHT22;14766;51.380;13.762;2023-07-28T08:35:55;23.60;63.80
27266;DHT22;14766;51.380;13.762;2023-07-28T08:38:24;23.60;63.50
27266;DHT22;14766;51.380;13.762;2023-07-28T08:40:50;23.70;63.50
27266;DHT22;14766;51.380;13.762;2023-07-28T08:43:18;23.60;63.80
27266;DHT22;14766;51.380;13.762;2023-07-28T08:45:46;23.70;63.70
27266;DHT22;14766;51.380;13.762;2023-07-28T08:48:16;23.70;63.10
27266;DHT22;14766;51.380;13.762;2023-07-28T08:50:43;23.70;63.50
27266;DHT22;14766;51.380;13.762;2023-07-28T08:53:10;23.70;63.00
27266;DHT22;14766;51.380;13.762;2023-07-28T08:55:37;23.80;63.30
27266;DHT22;14766;51.380;13.762;2023-07-28T08:58:17;23.80;63.30
27266;DHT22;14766;51.380;13.762;2023-07-28T09:00:50;23.90;63.20
27266;DHT22;14766;51.380;13.762;2023-07-28T09:03:18;24.00;63.40
27266;DHT22;14766;51.380;13.762;2023-07-28T09:05:46;24.00;63.60
27266;DHT22;14766;51.380;13.762;2023-07-28T09:08:16;24.10;63.40
27266;DHT22;14766;51.380;13.762;2023-07-28T09:10:48;24.20;62.10
27266;DHT22;14766;51.380;13.762;2023-07-28T09:13:20;24.20;62.70
27266;DHT22;14766;51.380;13.762;2023-07-28T09:15:47;24.30;62.40
27266;DHT22;14766;51.380;13.762;2023-07-28T09:18:16;24.40;61.80
27266;DHT22;14766;51.380;13.762;2023-07-28T09:20:44;24.50;61.10
27266;DHT22;14766;51.380;13.762;2023-07-28T09:23:14;24.60;60.80
27266;DHT22;14766;51.380;13.762;2023-07-28T09:25:41;24.70;58.90
27266;DHT22;14766;51.380;13.762;2023-07-28T09:28:09;24.80;59.40
27266;DHT22;14766;51.380;13.762;2023-07-28T09:30:47;24.90;59.10
27266;DHT22;14766;51.380;13.762;2023-07-28T09:33:35;25.00;58.60
27266;DHT22;14766;51.380;13.762;2023-07-28T09:36:14;25.00;58.50
27266;DHT22;14766;51.380;13.762;2023-07-28T09:38:44;25.10;58.60
27266;DHT22;14766;51.380;13.762;2023-07-28T09:41:11;25.20;58.20
27266;DHT22;14766;51.380;13.762;2023-07-28T09:43:40;25.30;58.20
27266;DHT22;14766;51.380;13.762;2023-07-28T09:46:09;25.30;57.50
27266;DHT22;14766;51.380;13.762;2023-07-28T09:48:45;25.40;57.90
27266;DHT22;14766;51.380;13.762;2023-07-28T09:51:17;25.50;56.80
27266;DHT22;14766;51.380;13.762;2023-07-28T09:53:52;25.50;57.50
27266;DHT22;14766;51.380;13.762;2023-07-28T09:56:22;25.60;57.60
27266;DHT22;14766;51.380;13.762;2023-07-28T09:58:52;25.60;57.00
27266;DHT22;14766;51.380;13.762;2023-07-28T10:01:20;25.60;56.70
27266;DHT22;14766;51.380;13.762;2023-07-28T10:03:50;25.60;57.30
27266;DHT22;14766;51.380;13.762;2023-07-28T10:06:20;25.60;56.90
27266;DHT22;14766;51.380;13.762;2023-07-28T10:08:49;25.60;56.60
27266;DHT22;14766;51.380;13.762;2023-07-28T10:11:16;25.60;56.70
27266;DHT22;14766;51.380;13.762;2023-07-28T10:13:45;25.60;56.70
27266;DHT22;14766;51.380;13.762;2023-07-28T10:16:13;25.70;55.80
27266;DHT22;14766;51.380;13.762;2023-07-28T10:18:54;25.80;56.00
27266;DHT22;14766;51.380;13.762;2023-07-28T10:21:21;25.80;55.90
27266;DHT22;14766;51.380;13.762;2023-07-28T10:23:56;25.90;56.10
27266;DHT22;14766;51.380;13.762;2023-07-28T10:26:40;25.90;56.20
27266;DHT22;14766;51.380;13.762;2023-07-28T10:29:10;25.90;55.70
27266;DHT22;14766;51.380;13.762;2023-07-28T10:31:37;26.10;56.00
27266;DHT22;14766;51.380;13.762;2023-07-28T10:34:17;26.10;54.60
27266;DHT22;14766;51.380;13.762;2023-07-28T10:36:46;26.20;55.20
27266;DHT22;14766;51.380;13.762;2023-07-28T10:39:15;26.30;54.70
27266;DHT22;14766;51.380;13.762;2023-07-28T10:42:06;26.40;54.90
27266;DHT22;14766;51.380;13.762;2023-07-28T10:44:34;26.50;53.50
27266;DHT22;14766;51.380;13.762;2023-07-28T10:47:01;26.60;53.50
27266;DHT22;14766;51.380;13.762;2023-07-28T10:49:28;26.70;53.40
27266;DHT22;14766;51.380;13.762;2023-07-28T10:51:56;26.70;53.10
27266;DHT22;14766;51.380;13.762;2023-07-28T10:54:23;26.80;53.60
27266;DHT22;14766;51.380;13.762;2023-07-28T10:56:50;26.80;52.10
27266;DHT22;14766;51.380;13.762;2023-07-28T10:59:17;26.80;52.20
27266;DHT22;14766;51.380;13.762;2023-07-28T11:01:44;26.90;52.90
27266;DHT22;14766;51.380;13.762;2023-07-28T11:04:17;26.90;52.50
27266;DHT22;14766;51.380;13.762;2023-07-28T11:06:48;26.80;51.40
27266;DHT22;14766;51.380;13.762;2023-07-28T11:09:19;26.80;51.00
27266;DHT22;14766;51.380;13.762;2023-07-28T11:11:46;26.80;51.00
27266;DHT22;14766;51.380;13.762;2023-07-28T11:14:15;26.80;50.70
27266;DHT22;14766;51.380;13.762;2023-07-28T11:16:44;26.70;51.00
27266;DHT22;14766;51.380;13.762;2023-07-28T11:19:15;26.80;51.70
27266;DHT22;14766;51.380;13.762;2023-07-28T11:21:45;26.80;52.20
27266;DHT22;14766;51.380;13.762;2023-07-28T11:24:21;26.90;52.00
27266;DHT22;14766;51.380;13.762;2023-07-28T11:26:50;27.00;51.60
27266;DHT22;14766;51.380;13.762;2023-07-28T11:29:18;27.20;51.60
27266;DHT22;14766;51.380;13.762;2023-07-28T11:31:48;27.30;51.30
27266;DHT22;14766;51.380;13.762;2023-07-28T11:34:19;27.40;50.90
27266;DHT22;14766;51.380;13.762;2023-07-28T11:36:46;27.40;50.80
27266;DHT22;14766;51.380;13.762;2023-07-28T11:39:13;27.50;50.80
27266;DHT22;14766;51.380;13.762;2023-07-28T11:41:45;27.50;50.70
27266;DHT22;14766;51.380;13.762;2023-07-28T11:44:15;27.60;50.60
27266;DHT22;14766;51.380;13.762;2023-07-28T11:46:42;27.60;50.40
27266;DHT22;14766;51.380;13.762;2023-07-28T11:49:16;27.80;49.90
27266;DHT22;14766;51.380;13.762;2023-07-28T11:51:51;27.90;50.40
27266;DHT22;14766;51.380;13.762;2023-07-28T11:54:22;28.00;50.20
27266;DHT22;14766;51.380;13.762;2023-07-28T11:56:51;28.20;50.10
27266;DHT22;14766;51.380;13.762;2023-07-28T11:59:19;28.30;49.50
27266;DHT22;14766;51.380;13.762;2023-07-28T12:04:27;28.60;48.70
27266;DHT22;14766;51.380;13.762;2023-07-28T12:12:23;28.80;47.10
27266;DHT22;14766;51.380;13.762;2023-07-28T12:14:51;28.90;47.70
27266;DHT22;14766;51.380;13.762;2023-07-28T12:17:39;29.00;47.40
27266;DHT22;14766;51.380;13.762;2023-07-28T12:20:10;29.10;46.90
27266;DHT22;14766;51.380;13.762;2023-07-28T12:22:40;29.00;46.40
27266;DHT22;14766;51.380;13.762;2023-07-28T12:25:08;29.00;45.20
27266;DHT22;14766;51.380;13.762;2023-07-28T12:27:36;29.00;45.10
27266;DHT22;14766;51.380;13.762;2023-07-28T12:30:04;29.10;46.20
27266;DHT22;14766;51.380;13.762;2023-07-28T12:32:31;29.00;45.50
27266;DHT22;14766;51.380;13.762;2023-07-28T12:35:04;29.00;45.10
27266;DHT22;14766;51.380;13.762;2023-07-28T12:37:35;29.00;45.70
27266;DHT22;14766;51.380;13.762;2023-07-28T12:40:19;28.90;45.20
27266;DHT22;14766;51.380;13.762;2023-07-28T12:42:49;28.90;46.10
27266;DHT22;14766;51.380;13.762;2023-07-28T12:45:19;28.90;46.50
27266;DHT22;14766;51.380;13.762;2023-07-28T12:47:49;28.90;46.50
27266;DHT22;14766;51.380;13.762;2023-07-28T12:50:25;28.90;46.30
27266;DHT22;14766;51.380;13.762;2023-07-28T12:52:52;28.90;46.60
27266;DHT22;14766;51.380;13.762;2023-07-28T12:55:22;29.00;46.80
27266;DHT22;14766;51.380;13.762;2023-07-28T12:57:49;29.00;45.80
27266;DHT22;14766;51.380;13.762;2023-07-28T13:00:16;29.10;44.40
27266;DHT22;14766;51.380;13.762;2023-07-28T13:02:48;29.10;44.50
27266;DHT22;14766;51.380;13.762;2023-07-28T13:05:15;29.10;45.00
27266;DHT22;14766;51.380;13.762;2023-07-28T13:07:44;29.10;45.00
27266;DHT22;14766;51.380;13.762;2023-07-28T13:10:14;29.10;44.40
27266;DHT22;14766;51.380;13.762;2023-07-28T13:12:44;29.00;44.80
27266;DHT22;14766;51.380;13.762;2023-07-28T13:15:15;29.00;44.10
27266;DHT22;14766;51.380;13.762;2023-07-28T13:17:43;28.90;43.80
27266;DHT22;14766;51.380;13.762;2023-07-28T13:20:11;28.90;44.10
27266;DHT22;14766;51.380;13.762;2023-07-28T13:22:38;28.90;44.20
27266;DHT22;14766;51.380;13.762;2023-07-28T13:25:05;28.90;44.00
27266;DHT22;14766;51.380;13.762;2023-07-28T13:27:33;28.80;43.90
27266;DHT22;14766;51.380;13.762;2023-07-28T13:30:01;28.80;44.50
27266;DHT22;14766;51.380;13.762;2023-07-28T13:32:31;28.80;43.80
27266;DHT22;14766;51.380;13.762;2023-07-28T13:34:58;28.80;44.10
27266;DHT22;14766;51.380;13.762;2023-07-28T13:37:25;28.80;44.20
27266;DHT22;14766;51.380;13.762;2023-07-28T13:39:53;28.80;44.50
27266;DHT22;14766;51.380;13.762;2023-07-28T13:42:20;28.80;45.00
27266;DHT22;14766;51.380;13.762;2023-07-28T13:44:47;28.90;45.40
27266;DHT22;14766;51.380;13.762;2023-07-28T13:47:25;28.90;45.10
27266;DHT22;14766;51.380;13.762;2023-07-28T13:49:53;29.00;43.70
27266;DHT22;14766;51.380;13.762;2023-07-28T13:52:21;29.00;43.60
27266;DHT22;14766;51.380;13.762;2023-07-28T13:54:49;29.10;42.90
27266;DHT22;14766;51.380;13.762;2023-07-28T13:57:19;29.10;42.60
27266;DHT22;14766;51.380;13.762;2023-07-28T13:59:46;29.10;42.80
27266;DHT22;14766;51.380;13.762;2023-07-28T14:02:14;29.10;42.30
27266;DHT22;14766;51.380;13.762;2023-07-28T14:04:43;29.10;41.70
27266;DHT22;14766;51.380;13.762;2023-07-28T14:07:10;29.10;42.50
27266;DHT22;14766;51.380;13.762;2023-07-28T14:09:37;29.10;42.90
27266;DHT22;14766;51.380;13.762;2023-07-28T14:12:06;29.20;43.20
27266;DHT22;14766;51.380;13.762;2023-07-28T14:14:33;29.20;42.80
27266;DHT22;14766;51.380;13.762;2023-07-28T14:17:00;29.20;43.20
27266;DHT22;14766;51.380;13.762;2023-07-28T14:19:28;29.20;43.40
27266;DHT22;14766;51.380;13.762;2023-07-28T14:22:02;29.20;43.20
27266;DHT22;14766;51.380;13.762;2023-07-28T14:24:29;29.20;43.30
27266;DHT22;14766;51.380;13.762;2023-07-28T14:26:58;29.30;43.50
27266;DHT22;14766;51.380;13.762;2023-07-28T14:29:26;29.30;43.70
27266;DHT22;14766;51.380;13.762;2023-07-28T14:31:54;29.20;43.40
27266;DHT22;14766;51.380;13.762;2023-07-28T14:34:21;29.30;43.50
27266;DHT22;14766;51.380;13.762;2023-07-28T14:36:48;29.30;43.50
27266;DHT22;14766;51.380;13.762;2023-07-28T14:39:16;29.30;43.20
27266;DHT22;14766;51.380;13.762;2023-07-28T14:41:44;29.30;42.60
27266;DHT22;14766;51.380;13.762;2023-07-28T14:44:11;29.30;42.40
27266;DHT22;14766;51.380;13.762;2023-07-28T14:46:39;29.30;42.30
27266;DHT22;14766;51.380;13.762;2023-07-28T14:49:06;29.30;42.00
27266;DHT22;14766;51.380;13.762;2023-07-28T14:51:33;29.40;42.10
27266;DHT22;14766;51.380;13.762;2023-07-28T14:54:02;29.40;42.10
27266;DHT22;14766;51.380;13.762;2023-07-28T14:56:30;29.40;42.20
27266;DHT22;14766;51.380;13.762;2023-07-28T14:58:58;29.40;42.20
27266;DHT22;14766;51.380;13.762;2023-07-28T15:01:28;29.40;41.50
27266;DHT22;14766;51.380;13.762;2023-07-28T15:03:56;29.40;41.70
27266;DHT22;14766;51.380;13.762;2023-07-28T15:06:24;29.40;42.30
27266;DHT22;14766;51.380;13.762;2023-07-28T15:08:53;29.50;42.50
27266;DHT22;14766;51.380;13.762;2023-07-28T15:11:20;29.40;42.60
27266;DHT22;14766;51.380;13.762;2023-07-28T15:13:47;29.40;42.80
27266;DHT22;14766;51.380;13.762;2023-07-28T15:16:14;29.50;43.00
27266;DHT22;14766;51.380;13.762;2023-07-28T15:18:41;29.50;43.10
27266;DHT22;14766;51.380;13.762;2023-07-28T15:21:11;29.50;42.90
27266;DHT22;14766;51.380;13.762;2023-07-28T15:23:39;29.50;42.60
27266;DHT22;14766;51.380;13.762;2023-07-28T15:26:06;29.40;42.50
27266;DHT22;14766;51.380;13.762;2023-07-28T15:28:33;29.40;42.50
27266;DHT22;14766;51.380;13.762;2023-07-28T15:31:02;29.40;42.60
27266;DHT22;14766;51.380;13.762;2023-07-28T15:33:32;29.40;42.30
27266;DHT22;14766;51.380;13.762;2023-07-28T15:35:59;29.30;41.70
27266;DHT22;14766;51.380;13.762;2023-07-28T15:38:26;29.30;41.40
27266;DHT22;14766;51.380;13.762;2023-07-28T15:40:53;29.30;42.00